Lafayette, IN

9:02 PM EDT on September 15, 2014 (GMT -0400)
Purdue Univ | Change Station
CLOSE
Current Station
Airport
Location: Lafayette,
Elevation: 604 ft
Nearby Weather Stations

Elev 604 ft 40.41 °N, 86.93 °W | Updated 8 minutes ago

Fog
Fog
55 °F
Feels Like 55 °F
N
0
Wind Variable Wind from North

Today
High -- | Low -- °F
--% Chance of Precip.
Yesterday
High -- | Low -- °F
Precip. -- in
7:28 AM 7:56 PM
Waning Gibbous, 50% visible
Pressure 30.11 in
Visibility 2.5 miles
Clouds Mostly Cloudy 1100 ft
Mostly Cloudy 1700 ft
Overcast 2700 ft
Dew Point 55 °F
Humidity 100%
Rainfall 0.40 in
Snow Depth Not available.
UV 0 out of 12
Pollen 5.60 out of 12
Air Quality Not available.
Flu Activity Not available.
METAR KLAF 160054Z AUTO 00000KT 2 1/2SM BR BKN011 BKN017 OVC027 13/13 A3011 RMK AO2 RAB13E22 SLP196 P0001 T01280128

More Conditions Fewer Conditions

Pressure 30.11 in
Visibility 2.5 miles
Clouds Mostly Cloudy 1100 ft
Mostly Cloudy 1700 ft
Overcast 2700 ft
Dew Point 55 °F
Humidity 100%
Rainfall 0.40 in
Snow Depth Not available.
UV 0 out of 12
Pollen 5.60 out of 12
Air Quality Not available.
Flu Activity Not available.
METAR KLAF 160054Z AUTO 00000KT 2 1/2SM BR BKN011 BKN017 OVC027 13/13 A3011 RMK AO2 RAB13E22 SLP196 P0001 T01280128

More Conditions Fewer Conditions

10-Day Weather Forecast

Almanac

Astronomy

Sep. 15, 2014 Rise Set
Actual Time 7:28 AM EDT 7:56 PM EDT
Civil Twilight 7:00 AM EDT 8:23 PM EDT
Nautical Twilight 6:28 AM EDT 8:55 PM EDT
Astronomical Twilight 5:55 AM EDT 9:28 PM EDT
Moon No Moon Rise 2:29 PM EDT (9/15)
Length of Visible Light 13h 22m
Length of Day
12h 28m
Tomorrow will be 2m 39s shorter.
Waning Gibbous, 50% of the Moon is Illuminated
Today
Waning Gibbous
Sep 15
Last Quarter
Sep 24
New
Oct 1
First Quarter
Oct 8
Full

Community

WunderPhotos

Upload Photos

1,753,630 photos uploaded!

WunderBlogs® & News

Nearby

Snow Depth

Station Depth Elevation
No new snow has been reported.

Earthquake Activity

City Distance Mag. Time & Date
No recent earthquake activity has been reported nearby.
Minimum magnitude displayed is 2.5.

Coastal Water Temperatures

Place Temperature
No Stations Reporting

Nearby Weather Stations